Time;durP1;ratioP1;P1;durP2;ratioP2;P2;SDS_P1;SDS_P2;PMS_P1;PMS_P2;Temp;Humidity;BMP_temperature;BMP_pressure;BME280_temperature;BME280_humidity;BME280_pressure;Samples;Min_cycle;Max_cycle;Signal;HPM_P1;HPM_P2
2021/05/08 00:02:01;;;;;;;5.07;4.57;;;2.30;99.90;;;;;;5001189;28;20686;-71
2021/05/08 00:04:28;;;;;;;6.15;5.00;;;2.30;99.90;;;;;;5000814;28;20206;-71
2021/05/08 00:06:55;;;;;;;5.47;4.97;;;2.30;99.90;;;;;;5001522;28;20202;-69
2021/05/08 00:09:21;;;;;;;5.88;4.68;;;2.30;99.90;;;;;;4984242;28;20278;-69
2021/05/08 00:11:48;;;;;;;6.47;4.68;;;2.20;99.90;;;;;;4981578;28;20569;-70
2021/05/08 00:14:14;;;;;;;7.15;5.13;;;2.20;99.90;;;;;;4981256;28;20567;-70
2021/05/08 00:16:41;;;;;;;6.97;5.88;;;2.20;99.90;;;;;;4981951;28;20247;-71
2021/05/08 00:19:07;;;;;;;5.47;4.95;;;2.20;99.90;;;;;;4980880;28;20222;-71
2021/05/08 00:21:33;;;;;;;6.55;5.50;;;2.10;99.90;;;;;;4985099;28;20214;-70
2021/05/08 00:23:59;;;;;;;9.63;5.57;;;2.10;99.90;;;;;;4985521;28;20199;-71
2021/05/08 00:26:26;;;;;;;5.60;5.10;;;2.10;99.90;;;;;;4985162;28;20594;-70
2021/05/08 00:28:52;;;;;;;5.65;4.93;;;2.00;99.90;;;;;;4983758;28;20240;-69
2021/05/08 00:31:19;;;;;;;5.88;5.30;;;2.00;99.90;;;;;;4988186;28;20206;-71
2021/05/08 00:33:47;;;;;;;5.15;4.65;;;2.00;99.90;;;;;;5004339;28;20253;-71
2021/05/08 00:36:13;;;;;;;6.47;4.93;;;2.00;99.90;;;;;;5004838;28;20301;-70
2021/05/08 00:38:39;;;;;;;6.00;5.40;;;1.90;99.90;;;;;;5004055;28;20202;-71
2021/05/08 00:41:05;;;;;;;5.50;5.00;;;1.90;99.90;;;;;;5004431;28;20226;-71
2021/05/08 00:43:32;;;;;;;5.30;4.80;;;1.90;99.90;;;;;;5004625;28;20213;-70
2021/05/08 00:45:58;;;;;;;6.03;5.20;;;1.90;99.90;;;;;;5004849;28;20349;-70
2021/05/08 00:48:27;;;;;;;6.18;5.30;;;1.90;99.90;;;;;;5004005;28;20228;-70
2021/05/08 00:50:54;;;;;;;6.22;5.05;;;1.90;99.90;;;;;;5004519;28;20233;-71
2021/05/08 00:53:21;;;;;;;8.35;5.80;;;1.90;99.90;;;;;;5004644;28;20222;-71
2021/05/08 00:55:47;;;;;;;7.38;5.32;;;2.00;99.90;;;;;;5004590;28;20210;-69
2021/05/08 00:58:13;;;;;;;6.85;5.65;;;1.90;99.90;;;;;;5004084;28;20210;-70
2021/05/08 01:00:39;;;;;;;6.57;5.00;;;1.90;99.90;;;;;;5005633;28;20277;-70
2021/05/08 01:03:07;;;;;;;6.00;4.88;;;1.80;99.90;;;;;;5011285;28;20202;-71
2021/05/08 01:05:33;;;;;;;5.20;4.38;;;1.80;99.90;;;;;;5012494;28;20282;-70
2021/05/08 01:08:01;;;;;;;5.38;4.82;;;1.90;99.90;;;;;;5011757;28;20435;-70
2021/05/08 01:10:29;;;;;;;5.57;4.72;;;1.80;99.90;;;;;;5010190;28;20245;-70
2021/05/08 01:12:56;;;;;;;5.38;4.88;;;1.70;99.90;;;;;;5073247;22;20288;-69
2021/05/08 01:15:22;;;;;;;5.70;4.70;;;1.60;99.90;;;;;;5011701;28;20194;-68
2021/05/08 01:17:49;;;;;;;6.32;5.15;;;1.60;99.90;;;;;;5011270;28;20698;-68
2021/05/08 01:20:15;;;;;;;5.55;5.00;;;1.60;99.90;;;;;;5011396;28;20272;-68
2021/05/08 01:22:43;;;;;;;7.25;4.90;;;1.50;99.90;;;;;;5011857;28;20207;-68
2021/05/08 01:25:12;;;;;;;6.22;5.07;;;1.50;99.90;;;;;;5011362;28;20224;-69
2021/05/08 01:27:44;;;;;;;6.15;5.13;;;1.50;99.90;;;;;;5011425;28;20218;-68
2021/05/08 01:30:11;;;;;;;6.85;5.20;;;1.50;99.90;;;;;;5010939;28;20231;-68
2021/05/08 01:32:38;;;;;;;5.50;4.90;;;1.40;99.90;;;;;;5011500;28;20206;-68
2021/05/08 01:35:04;;;;;;;5.85;4.95;;;1.50;99.90;;;;;;5011165;28;20214;-69
2021/05/08 01:37:30;;;;;;;5.10;4.47;;;1.50;99.90;;;;;;5011342;28;20248;-68
2021/05/08 01:39:58;;;;;;;6.88;5.82;;;1.50;99.90;;;;;;5010784;28;20314;-68
2021/05/08 01:42:25;;;;;;;5.70;5.10;;;1.40;99.90;;;;;;5011227;28;20306;-69
2021/05/08 01:44:51;;;;;;;5.50;4.95;;;1.40;99.90;;;;;;5011118;28;20210;-68
2021/05/08 01:47:17;;;;;;;8.18;4.97;;;1.40;99.90;;;;;;5010796;28;20268;-68
2021/05/08 01:49:43;;;;;;;6.25;4.55;;;1.40;99.90;;;;;;5010510;28;20237;-68
2021/05/08 01:52:09;;;;;;;6.95;6.13;;;1.40;99.90;;;;;;5010929;28;20662;-68
2021/05/08 01:54:36;;;;;;;5.47;4.97;;;1.40;99.90;;;;;;5011003;28;20218;-68
2021/05/08 01:57:03;;;;;;;6.43;4.80;;;1.50;99.90;;;;;;5010858;28;20213;-68
2021/05/08 01:59:29;;;;;;;6.05;5.45;;;1.40;99.90;;;;;;5010162;28;20226;-69
2021/05/08 02:01:55;;;;;;;6.07;5.47;;;1.30;99.90;;;;;;5010864;28;20203;-69
2021/05/08 02:04:22;;;;;;;6.65;4.60;;;1.30;99.90;;;;;;5010450;28;20257;-69
2021/05/08 02:06:53;;;;;;;6.50;5.90;;;1.30;99.90;;;;;;5011106;28;20211;-68
2021/05/08 02:09:19;;;;;;;6.40;5.00;;;1.30;99.90;;;;;;5009997;28;20260;-68
2021/05/08 02:11:45;;;;;;;5.43;4.43;;;1.30;99.90;;;;;;5010677;28;20218;-69
2021/05/08 02:14:12;;;;;;;5.55;4.95;;;1.20;99.90;;;;;;5010417;28;20272;-69
2021/05/08 02:16:38;;;;;;;5.95;5.15;;;1.20;99.90;;;;;;5010676;28;20214;-69
2021/05/08 02:19:04;;;;;;;5.90;5.28;;;1.20;99.90;;;;;;5009779;28;20202;-69
2021/05/08 02:21:31;;;;;;;5.68;4.60;;;1.20;99.90;;;;;;5010575;28;20206;-69
2021/05/08 02:23:57;;;;;;;5.20;3.85;;;1.10;99.90;;;;;;5010705;28;20194;-69
2021/05/08 02:26:23;;;;;;;5.32;4.82;;;1.20;99.90;;;;;;5010236;28;20253;-69
2021/05/08 02:28:49;;;;;;;5.10;4.60;;;1.10;99.90;;;;;;5010090;28;20207;-68
2021/05/08 02:31:16;;;;;;;5.25;3.80;;;1.00;99.90;;;;;;5010253;28;20218;-69
2021/05/08 02:33:43;;;;;;;5.53;4.90;;;1.00;99.90;;;;;;5010095;28;20229;-68
2021/05/08 02:36:09;;;;;;;6.57;4.60;;;1.00;99.90;;;;;;5010184;28;20210;-68
2021/05/08 02:38:35;;;;;;;4.82;4.40;;;1.00;99.90;;;;;;5009730;28;20213;-69
2021/05/08 02:41:01;;;;;;;5.95;4.28;;;0.90;99.90;;;;;;5010166;28;20226;-68
2021/05/08 02:43:27;;;;;;;5.93;4.55;;;0.90;99.90;;;;;;5009759;28;20261;-68
2021/05/08 02:45:54;;;;;;;4.80;4.15;;;0.90;99.90;;;;;;5010218;28;20276;-68
2021/05/08 02:48:21;;;;;;;6.05;4.28;;;0.90;99.90;;;;;;5009409;28;20203;-69
2021/05/08 02:50:47;;;;;;;5.90;4.50;;;0.80;99.90;;;;;;5009906;28;20226;-69
2021/05/08 02:53:13;;;;;;;4.55;4.13;;;0.90;99.90;;;;;;5009785;28;20221;-69
2021/05/08 02:55:39;;;;;;;4.65;4.07;;;0.90;99.90;;;;;;5010078;28;20584;-68
2021/05/08 02:58:05;;;;;;;6.38;4.55;;;0.90;99.90;;;;;;5009604;28;20583;-68
2021/05/08 03:00:32;;;;;;;4.85;4.43;;;0.90;99.90;;;;;;5009826;28;20592;-69
2021/05/08 03:02:58;;;;;;;4.70;4.22;;;0.80;99.90;;;;;;5009840;28;20583;-69
2021/05/08 03:05:25;;;;;;;6.80;4.70;;;0.80;99.90;;;;;;5009920;28;20210;-69
2021/05/08 03:07:51;;;;;;;4.75;4.35;;;0.70;99.90;;;;;;5009283;28;20206;-68
2021/05/08 03:10:17;;;;;;;5.07;4.57;;;0.70;99.90;;;;;;5009606;28;20237;-68
2021/05/08 03:12:44;;;;;;;5.38;4.45;;;0.70;99.90;;;;;;5009768;28;20643;-68
2021/05/08 03:15:11;;;;;;;5.50;4.47;;;0.60;99.90;;;;;;5009725;28;20206;-68
2021/05/08 03:17:37;;;;;;;5.78;4.75;;;0.60;99.90;;;;;;5009376;28;20206;-69
2021/05/08 03:20:05;;;;;;;5.70;4.75;;;0.60;99.90;;;;;;5009204;28;20252;-69
2021/05/08 03:22:32;;;;;;;6.90;5.15;;;0.60;99.90;;;;;;5009682;28;20625;-69
2021/05/08 03:24:58;;;;;;;5.20;4.80;;;0.70;99.90;;;;;;5009612;28;20202;-67
2021/05/08 03:27:25;;;;;;;6.53;4.78;;;0.70;99.90;;;;;;5009434;28;20240;-68
2021/05/08 03:29:51;;;;;;;6.80;5.10;;;0.70;99.90;;;;;;5009204;28;20234;-68
2021/05/08 03:32:17;;;;;;;6.53;5.18;;;0.70;99.90;;;;;;5009663;28;20210;-68
2021/05/08 03:34:44;;;;;;;6.70;6.05;;;0.70;99.90;;;;;;5009382;28;20713;-68
2021/05/08 03:37:10;;;;;;;6.38;5.53;;;0.70;99.90;;;;;;5009754;28;20638;-69
2021/05/08 03:39:37;;;;;;;7.25;5.35;;;0.70;99.90;;;;;;5009615;28;20248;-68
2021/05/08 03:42:03;;;;;;;6.20;4.93;;;0.70;99.90;;;;;;5009882;28;20201;-69
2021/05/08 03:44:30;;;;;;;5.65;5.10;;;0.70;99.90;;;;;;5009936;28;20654;-68
2021/05/08 03:46:56;;;;;;;5.90;4.80;;;0.60;99.90;;;;;;5009770;28;20741;-68
2021/05/08 03:49:22;;;;;;;5.30;4.18;;;0.60;99.90;;;;;;5009219;28;20225;-69
2021/05/08 03:51:49;;;;;;;5.30;4.80;;;0.70;99.90;;;;;;5009782;28;20209;-69
2021/05/08 03:54:15;;;;;;;6.28;4.75;;;0.60;99.90;;;;;;5008141;28;20772;-69
2021/05/08 03:56:42;;;;;;;5.93;4.72;;;0.60;99.90;;;;;;5009665;28;20587;-68
2021/05/08 03:59:08;;;;;;;6.28;5.13;;;0.60;99.90;;;;;;5008439;28;20552;-69
2021/05/08 04:01:34;;;;;;;6.40;5.00;;;0.60;99.90;;;;;;5009319;28;20214;-69
2021/05/08 04:04:01;;;;;;;5.32;4.80;;;0.60;99.90;;;;;;5008998;28;20678;-68
2021/05/08 04:06:27;;;;;;;5.88;5.28;;;0.60;99.90;;;;;;5008956;28;20256;-69
2021/05/08 04:08:53;;;;;;;4.43;4.03;;;0.50;99.90;;;;;;5008853;28;20207;-69
2021/05/08 04:11:19;;;;;;;5.65;4.80;;;0.50;99.90;;;;;;5009039;28;20210;-68
2021/05/08 04:13:46;;;;;;;5.15;4.00;;;0.60;99.90;;;;;;5009465;28;20752;-69
2021/05/08 04:16:12;;;;;;;6.47;4.80;;;0.60;99.90;;;;;;5009109;28;20206;-69
2021/05/08 04:18:39;;;;;;;5.75;4.50;;;0.60;99.90;;;;;;5009067;28;20570;-68
2021/05/08 04:21:05;;;;;;;5.80;5.15;;;0.60;99.90;;;;;;5009172;28;20225;-68
2021/05/08 04:23:31;;;;;;;5.93;4.88;;;0.60;99.90;;;;;;5009397;28;20202;-69
2021/05/08 04:25:57;;;;;;;6.78;4.63;;;0.60;99.90;;;;;;5009538;28;20206;-69
2021/05/08 04:28:24;;;;;;;5.15;4.75;;;0.70;99.90;;;;;;5008590;28;20574;-69
2021/05/08 04:30:51;;;;;;;6.55;4.95;;;0.70;99.90;;;;;;5009267;28;20226;-69
2021/05/08 04:33:17;;;;;;;5.20;4.70;;;0.70;99.90;;;;;;5008933;28;20717;-68
2021/05/08 04:35:43;;;;;;;5.07;4.57;;;0.80;99.90;;;;;;5009371;28;20261;-69
2021/05/08 04:38:10;;;;;;;4.82;4.28;;;0.80;99.90;;;;;;5007051;28;20203;-68
2021/05/08 04:40:36;;;;;;;5.13;4.60;;;0.90;99.90;;;;;;5007933;28;20230;-69
2021/05/08 04:43:02;;;;;;;6.78;4.90;;;0.90;99.90;;;;;;5009174;28;20206;-68
2021/05/08 04:45:28;;;;;;;5.13;4.68;;;1.00;99.90;;;;;;5008960;28;20214;-68
2021/05/08 04:47:57;;;;;;;5.70;4.97;;;1.10;99.90;;;;;;5008788;28;20202;-69
2021/05/08 04:50:24;;;;;;;4.75;4.07;;;1.20;99.90;;;;;;5008747;28;20292;-68
2021/05/08 04:52:50;;;;;;;5.05;4.43;;;1.20;99.90;;;;;;5009182;28;20203;-69
2021/05/08 04:55:17;;;;;;;7.72;4.45;;;1.30;99.90;;;;;;5008874;28;20194;-68
2021/05/08 04:57:43;;;;;;;5.85;5.30;;;1.20;99.90;;;;;;5008852;28;20616;-69
2021/05/08 05:00:12;;;;;;;4.95;4.38;;;1.30;99.90;;;;;;5008600;28;20608;-69
2021/05/08 05:02:40;;;;;;;6.05;4.30;;;1.40;99.90;;;;;;5008958;28;20206;-68
2021/05/08 05:05:09;;;;;;;5.43;4.60;;;1.40;99.90;;;;;;5008870;28;20202;-68
2021/05/08 05:07:35;;;;;;;4.82;4.07;;;1.50;99.90;;;;;;5012320;28;20207;-68
2021/05/08 05:10:02;;;;;;;5.63;4.45;;;1.60;99.90;;;;;;5012525;28;20226;-68
2021/05/08 05:12:28;;;;;;;5.32;4.40;;;1.60;99.90;;;;;;5012386;28;20262;-68
2021/05/08 05:14:54;;;;;;;6.35;4.63;;;1.70;99.90;;;;;;5012339;28;20697;-69
2021/05/08 05:17:20;;;;;;;4.80;4.30;;;1.90;99.90;;;;;;5012091;28;20221;-69
2021/05/08 05:19:46;;;;;;;9.52;5.03;;;2.00;99.90;;;;;;5011959;28;20226;-68
2021/05/08 05:22:13;;;;;;;5.18;4.13;;;2.00;99.90;;;;;;5011580;28;20209;-68
2021/05/08 05:24:40;;;;;;;4.30;3.90;;;2.00;99.90;;;;;;5011956;28;20198;-68
2021/05/08 05:27:06;;;;;;;4.45;3.85;;;2.20;99.90;;;;;;5012247;28;20576;-68
2021/05/08 05:29:32;;;;;;;4.32;3.92;;;2.30;99.90;;;;;;5011232;28;20280;-68
2021/05/08 05:31:58;;;;;;;5.10;4.43;;;2.40;99.90;;;;;;5012208;28;20202;-68
2021/05/08 05:34:24;;;;;;;5.30;4.18;;;2.50;99.90;;;;;;5011694;28;20227;-68
2021/05/08 05:36:51;;;;;;;4.90;4.15;;;2.60;99.90;;;;;;5010880;28;20260;-68
2021/05/08 05:39:18;;;;;;;4.10;3.70;;;2.80;99.90;;;;;;5011250;28;20233;-68
2021/05/08 05:41:45;;;;;;;5.03;4.22;;;2.90;99.90;;;;;;5011952;28;20207;-67
2021/05/08 05:44:11;;;;;;;5.53;4.95;;;3.00;99.90;;;;;;5011487;28;20206;-68
2021/05/08 05:46:37;;;;;;;5.40;4.90;;;3.20;99.90;;;;;;5011640;28;20210;-67
2021/05/08 05:49:03;;;;;;;5.10;4.60;;;3.30;99.90;;;;;;5011411;28;20238;-68
2021/05/08 05:51:30;;;;;;;4.30;3.90;;;3.50;99.90;;;;;;5011650;28;20237;-69
2021/05/08 05:53:56;;;;;;;5.00;4.05;;;3.80;99.90;;;;;;5011565;28;20222;-69
2021/05/08 05:56:25;;;;;;;7.43;4.57;;;4.10;99.90;;;;;;5011357;28;20715;-69
2021/05/08 05:58:52;;;;;;;7.03;4.05;;;4.40;99.90;;;;;;5010915;28;20206;-69
2021/05/08 06:01:18;;;;;;;6.18;4.18;;;4.60;99.90;;;;;;5011536;28;20673;-68
2021/05/08 06:03:44;;;;;;;4.63;3.80;;;4.80;99.90;;;;;;5011208;28;20678;-68
2021/05/08 06:06:11;;;;;;;4.10;3.65;;;5.00;99.90;;;;;;5011488;28;20428;-69
2021/05/08 06:08:37;;;;;;;6.13;4.00;;;5.10;99.90;;;;;;5010787;28;20609;-69
2021/05/08 06:11:04;;;;;;;3.95;3.40;;;5.20;99.90;;;;;;5011160;28;20222;-68
2021/05/08 06:13:32;;;;;;;5.32;3.70;;;5.40;99.90;;;;;;5011037;28;20223;-69
2021/05/08 06:15:59;;;;;;;4.38;3.40;;;5.40;99.90;;;;;;5011477;28;20210;-68
2021/05/08 06:18:25;;;;;;;4.55;3.72;;;5.60;99.90;;;;;;5009717;28;20210;-69
2021/05/08 06:20:51;;;;;;;4.10;3.70;;;5.80;99.90;;;;;;5011346;28;20714;-69
2021/05/08 06:23:18;;;;;;;7.38;4.20;;;5.90;99.90;;;;;;5011251;28;20670;-69
2021/05/08 06:25:44;;;;;;;6.63;3.50;;;6.00;99.90;;;;;;5010981;28;20260;-68
2021/05/08 06:28:11;;;;;;;4.57;3.50;;;6.10;99.90;;;;;;5010008;28;20641;-68
2021/05/08 06:30:38;;;;;;;5.47;3.70;;;6.20;99.90;;;;;;5010691;28;20448;-69
2021/05/08 06:33:04;;;;;;;4.28;2.97;;;6.30;99.90;;;;;;5010774;28;20210;-69
2021/05/08 06:35:31;;;;;;;4.72;3.00;;;6.30;99.90;;;;;;5010511;28;20583;-69
2021/05/08 06:37:58;;;;;;;3.10;2.80;;;6.40;99.90;;;;;;5010214;28;20203;-68
2021/05/08 06:40:24;;;;;;;4.93;3.40;;;6.50;99.90;;;;;;5010493;28;20624;-68
2021/05/08 06:42:50;;;;;;;4.30;3.45;;;6.60;99.90;;;;;;5010671;28;20210;-69
2021/05/08 06:45:16;;;;;;;3.63;3.33;;;6.80;99.90;;;;;;5010413;28;20572;-69
2021/05/08 06:47:43;;;;;;;4.88;3.67;;;6.90;99.90;;;;;;5010235;28;20202;-70
2021/05/08 06:50:10;;;;;;;3.50;3.20;;;7.00;99.90;;;;;;5010510;28;20270;-69
2021/05/08 06:52:37;;;;;;;4.50;4.10;;;7.20;99.90;;;;;;5010759;28;20202;-69
2021/05/08 06:55:04;;;;;;;5.88;5.38;;;7.30;99.90;;;;;;5010611;28;20226;-68
2021/05/08 06:57:30;;;;;;;6.53;5.35;;;7.40;99.90;;;;;;5010494;28;20250;-70
2021/05/08 06:59:56;;;;;;;6.50;5.30;;;7.60;99.90;;;;;;5009940;28;20728;-69
2021/05/08 07:02:23;;;;;;;8.07;4.72;;;7.70;99.90;;;;;;5010321;28;20273;-68
2021/05/08 07:04:50;;;;;;;4.90;4.40;;;7.90;99.90;;;;;;5010001;28;20194;-69
2021/05/08 07:07:16;;;;;;;5.68;5.10;;;8.10;99.90;;;;;;5010385;28;20658;-69
2021/05/08 07:09:42;;;;;;;6.68;4.75;;;8.20;99.90;;;;;;5009560;28;20230;-70
2021/05/08 07:14:41;;;;;;;6.03;5.05;;;8.50;99.90;;;;;;4968643;28;20320;-70
2021/05/08 07:17:08;;;;;;;5.30;4.50;;;8.70;99.90;;;;;;4970446;28;20200;-70
2021/05/08 07:19:34;;;;;;;3.90;3.10;;;8.90;99.90;;;;;;4969829;28;20220;-70
2021/05/08 07:22:02;;;;;;;4.05;3.75;;;9.00;99.90;;;;;;4970520;28;20208;-71
2021/05/08 07:24:28;;;;;;;5.40;4.75;;;9.20;99.90;;;;;;4970468;28;20204;-72
2021/05/08 07:26:57;;;;;;;3.15;2.85;;;9.40;99.90;;;;;;4970149;28;20642;-70
2021/05/08 07:29:24;;;;;;;3.38;2.75;;;9.50;99.40;;;;;;4968614;28;20649;-70
2021/05/08 07:31:51;;;;;;;3.70;3.08;;;9.50;98.80;;;;;;4968546;28;20638;-70
2021/05/08 07:34:17;;;;;;;3.17;2.55;;;9.70;99.30;;;;;;4970387;28;20226;-71
2021/05/08 07:36:43;;;;;;;2.75;2.45;;;9.90;98.10;;;;;;4970440;28;20207;-70
2021/05/08 07:39:10;;;;;;;3.20;2.90;;;10.00;97.60;;;;;;4969893;28;20298;-71
2021/05/08 07:41:37;;;;;;;2.80;2.60;;;10.00;97.30;;;;;;4970507;28;20207;-70
2021/05/08 07:44:04;;;;;;;4.45;2.47;;;10.20;97.80;;;;;;4970768;28;20212;-71
2021/05/08 07:46:30;;;;;;;4.20;2.45;;;10.40;96.90;;;;;;4970487;28;20215;-70
2021/05/08 07:48:57;;;;;;;3.20;2.70;;;10.50;97.30;;;;;;4970205;28;20219;-71
2021/05/08 07:51:23;;;;;;;3.38;2.80;;;10.60;96.20;;;;;;4970346;28;20575;-71
2021/05/08 07:53:49;;;;;;;3.45;2.75;;;10.70;95.90;;;;;;4970204;28;20227;-70
2021/05/08 07:56:16;;;;;;;3.47;2.70;;;10.90;96.90;;;;;;4970489;28;20710;-71
2021/05/08 07:58:42;;;;;;;3.75;2.75;;;11.00;94.70;;;;;;4969633;28;20230;-71
2021/05/08 08:01:09;;;;;;;4.40;3.20;;;10.90;94.90;;;;;;4970222;28;20223;-70
2021/05/08 08:03:35;;;;;;;2.60;2.10;;;10.90;95.50;;;;;;4969828;28;20200;-71
2021/05/08 08:06:01;;;;;;;3.83;2.97;;;11.00;95.10;;;;;;4969287;28;20462;-69
2021/05/08 08:08:28;;;;;;;3.10;2.80;;;10.90;95.40;;;;;;4969598;28;20239;-70
2021/05/08 08:10:55;;;;;;;3.35;2.45;;;10.90;94.50;;;;;;4970399;28;20320;-69
2021/05/08 08:13:22;;;;;;;2.70;2.50;;;11.00;95.60;;;;;;4969998;28;20277;-69
2021/05/08 08:15:48;;;;;;;3.63;2.53;;;11.20;96.00;;;;;;4970309;28;20207;-71
2021/05/08 08:18:14;;;;;;;3.30;2.50;;;11.20;95.70;;;;;;4970016;28;20285;-70
2021/05/08 08:20:41;;;;;;;2.53;2.30;;;11.30;96.70;;;;;;4969739;28;20583;-71
2021/05/08 08:23:07;;;;;;;2.70;2.50;;;11.50;95.70;;;;;;4970293;28;20218;-71
2021/05/08 08:25:33;;;;;;;2.40;2.20;;;11.50;95.10;;;;;;4969653;28;20200;-70
2021/05/08 08:27:59;;;;;;;2.75;2.40;;;11.60;94.40;;;;;;4969657;28;20210;-70
2021/05/08 08:30:26;;;;;;;3.38;2.78;;;11.60;94.80;;;;;;4969536;28;20236;-70
2021/05/08 08:32:52;;;;;;;2.40;2.20;;;11.70;94.00;;;;;;4969871;28;20219;-69
2021/05/08 08:35:19;;;;;;;3.00;2.45;;;11.70;93.40;;;;;;4969423;28;20223;-70
2021/05/08 08:37:45;;;;;;;3.30;2.17;;;11.90;94.20;;;;;;4966730;28;20211;-70
2021/05/08 08:40:12;;;;;;;2.40;2.20;;;12.10;95.50;;;;;;4969259;28;20228;-71
2021/05/08 08:42:38;;;;;;;2.05;1.85;;;12.40;92.90;;;;;;4967313;28;20668;-70
2021/05/08 08:45:05;;;;;;;2.25;2.05;;;12.50;91.10;;;;;;4963994;28;20196;-72
2021/05/08 08:47:34;;;;;;;3.60;2.05;;;12.50;91.50;;;;;;4971931;28;20424;-70
2021/05/08 08:50:03;;;;;;;2.10;1.57;;;12.80;92.90;;;;;;4964838;28;20306;-72
2021/05/08 08:52:29;;;;;;;2.60;2.03;;;13.10;91.00;;;;;;4961446;28;20470;-70
2021/05/08 08:54:57;;;;;;;1.90;1.63;;;13.40;90.70;;;;;;4960429;28;20979;-69
2021/05/08 08:57:27;;;;;;;2.93;2.23;;;13.60;90.80;;;;;;4966064;28;20963;-71
2021/05/08 08:59:54;;;;;;;2.20;1.50;;;13.90;90.60;;;;;;4969693;28;20483;-71
2021/05/08 09:02:24;;;;;;;2.57;1.70;;;14.20;88.20;;;;;;4967798;28;20462;-71
2021/05/08 09:04:51;;;;;;;1.90;1.77;;;14.40;86.90;;;;;;4950143;28;20523;-70
2021/05/08 09:07:21;;;;;;;2.50;1.53;;;14.70;86.50;;;;;;4966363;28;20471;-71
2021/05/08 09:09:49;;;;;;;2.10;1.67;;;15.00;84.80;;;;;;4959846;28;20497;-70
2021/05/08 09:12:19;;;;;;;2.13;1.83;;;15.20;81.40;;;;;;4969590;28;20526;-69
2021/05/08 09:14:49;;;;;;;2.37;1.70;;;15.20;82.10;;;;;;4969851;28;20942;-70
2021/05/08 09:17:17;;;;;;;2.00;1.80;;;14.90;82.90;;;;;;4967514;28;20508;-70
2021/05/08 09:19:45;;;;;;;2.87;2.00;;;15.00;86.50;;;;;;4969246;28;20486;-70
2021/05/08 09:22:31;;;;;;;3.70;1.97;;;15.00;82.30;;;;;;4970821;28;20498;-70
2021/05/08 09:25:00;;;;;;;2.00;1.80;;;14.50;79.60;;;;;;4970225;28;20462;-70
2021/05/08 09:27:46;;;;;;;2.30;2.10;;;14.20;84.20;;;;;;4970290;28;20501;-69
2021/05/08 09:30:17;;;;;;;3.50;1.90;;;14.20;80.90;;;;;;4974452;28;21045;-70
2021/05/08 09:32:44;;;;;;;4.10;1.57;;;14.30;84.20;;;;;;4969828;28;20470;-70
2021/05/08 09:35:14;;;;;;;1.83;1.57;;;14.50;83.70;;;;;;4969809;28;21088;-70
2021/05/08 09:37:42;;;;;;;1.73;1.63;;;14.50;83.50;;;;;;4959554;28;20765;-71
2021/05/08 09:40:26;;;;;;;2.80;2.17;;;14.90;85.80;;;;;;4960631;28;20546;-70
2021/05/08 09:42:54;;;;;;;2.73;1.90;;;15.30;81.40;;;;;;4954335;28;20471;-70
2021/05/08 09:45:23;;;;;;;2.50;2.30;;;15.60;79.80;;;;;;4966202;28;20459;-69
2021/05/08 09:47:50;;;;;;;2.50;1.90;;;15.50;79.90;;;;;;4968645;28;20463;-70
2021/05/08 09:50:20;;;;;;;2.20;2.00;;;15.60;80.50;;;;;;4969785;28;21101;-71
2021/05/08 09:52:53;;;;;;;2.80;2.10;;;15.70;79.50;;;;;;4969308;28;20463;-70
2021/05/08 09:55:21;;;;;;;1.93;1.63;;;15.90;81.10;;;;;;4969170;28;20486;-70
2021/05/08 09:58:05;;;;;;;2.73;2.00;;;16.10;79.30;;;;;;4968987;28;20470;-70
2021/05/08 10:00:34;;;;;;;3.80;1.67;;;16.40;79.60;;;;;;4969378;28;20497;-70
2021/05/08 10:03:11;;;;;;;2.03;1.83;;;16.80;80.00;;;;;;4979545;28;20549;-70
2021/05/08 10:05:39;;;;;;;2.57;1.77;;;17.30;76.50;;;;;;4988842;28;20557;-71
2021/05/08 10:08:07;;;;;;;1.63;1.53;;;17.70;73.20;;;;;;4989445;28;20481;-70
2021/05/08 10:10:35;;;;;;;1.63;1.53;;;17.50;70.30;;;;;;4988330;28;20482;-71
2021/05/08 10:13:07;;;;;;;2.87;1.70;;;17.30;71.60;;;;;;4978127;28;20467;-70
2021/05/08 10:15:34;;;;;;;2.90;1.57;;;17.30;71.70;;;;;;4963830;28;20490;-71
2021/05/08 10:18:03;;;;;;;1.93;1.70;;;17.10;72.40;;;;;;4964660;28;20473;-70
2021/05/08 10:20:30;;;;;;;2.20;1.60;;;17.20;70.90;;;;;;4965307;28;20515;-71
2021/05/08 10:22:58;;;;;;;2.60;1.73;;;17.60;70.90;;;;;;4965198;28;20912;-69
2021/05/08 10:25:27;;;;;;;1.70;1.50;;;17.90;72.20;;;;;;4968040;28;20514;-71
2021/05/08 10:27:53;;;;;;;2.70;1.53;;;18.20;71.40;;;;;;4974185;28;20470;-71
2021/05/08 10:30:21;;;;;;;2.00;1.63;;;18.00;74.60;;;;;;4962393;28;20491;-70
2021/05/08 10:32:50;;;;;;;2.17;1.97;;;18.60;76.70;;;;;;4961749;28;20463;-70
2021/05/08 10:35:23;;;;;;;2.07;1.80;;;18.20;67.70;;;;;;4966475;28;20542;-70
2021/05/08 10:38:10;;;;;;;1.90;1.50;;;17.90;67.60;;;;;;4965147;28;20478;-71
2021/05/08 10:40:50;;;;;;;1.93;1.67;;;18.30;70.50;;;;;;4965128;28;20521;-71
2021/05/08 10:43:38;;;;;;;2.43;1.73;;;19.10;75.00;;;;;;4965629;28;20458;-70
2021/05/08 10:46:04;;;;;;;1.80;1.70;;;19.70;67.80;;;;;;4965576;28;20526;-71
2021/05/08 10:48:31;;;;;;;1.47;1.37;;;19.70;63.40;;;;;;4964505;28;20459;-70
2021/05/08 10:50:59;;;;;;;2.30;1.60;;;19.90;64.90;;;;;;4965427;28;20483;-70
2021/05/08 10:53:42;;;;;;;2.77;1.53;;;19.80;64.20;;;;;;4964658;28;20481;-71
2021/05/08 10:56:31;;;;;;;2.00;1.60;;;20.50;66.00;;;;;;4965876;28;20467;-70
2021/05/08 10:59:04;;;;;;;2.33;2.13;;;21.20;60.90;;;;;;4962231;28;20459;-71
2021/05/08 11:01:41;;;;;;;2.23;1.70;;;20.50;61.60;;;;;;4963817;28;20971;-71
2021/05/08 11:04:07;;;;;;;1.97;1.70;;;20.00;63.00;;;;;;4963939;28;21026;-71
2021/05/08 11:06:34;;;;;;;1.50;1.40;;;19.30;62.10;;;;;;4962977;28;20463;-71
2021/05/08 11:09:01;;;;;;;2.10;1.40;;;18.90;63.40;;;;;;4963172;28;20471;-70
2021/05/08 11:11:50;;;;;;;1.73;1.60;;;19.10;69.10;;;;;;4963689;28;20498;-71
2021/05/08 11:14:51;;;;;;;1.47;1.37;;;19.60;66.60;;;;;;4959297;28;20518;-71
2021/05/08 11:17:17;;;;;;;1.90;1.60;;;19.80;62.00;;;;;;4961945;28;20509;-71
2021/05/08 11:19:43;;;;;;;3.40;2.00;;;19.30;63.60;;;;;;4963966;28;20487;-70
2021/05/08 11:22:10;;;;;;;1.93;1.70;;;19.50;63.10;;;;;;4964821;28;20471;-69
2021/05/08 11:24:39;;;;;;;2.47;2.27;;;19.60;65.00;;;;;;4964479;28;21176;-70
2021/05/08 11:27:21;;;;;;;3.47;1.90;;;20.20;66.90;;;;;;4964735;28;20554;-70
2021/05/08 11:29:48;;;;;;;2.90;1.80;;;20.70;64.80;;;;;;4961485;28;20486;-70
2021/05/08 11:32:14;;;;;;;1.70;1.60;;;21.20;61.60;;;;;;4965152;28;20501;-70
2021/05/08 11:34:43;;;;;;;2.70;1.83;;;21.40;63.50;;;;;;4964551;28;21155;-70
2021/05/08 11:37:13;;;;;;;1.90;1.73;;;21.20;62.10;;;;;;4964389;28;21072;-71
2021/05/08 11:39:40;;;;;;;2.20;2.00;;;20.90;63.50;;;;;;4963848;28;20514;-70
2021/05/08 11:42:13;;;;;;;2.17;1.90;;;20.60;63.30;;;;;;4964798;28;20502;-70
2021/05/08 11:44:42;;;;;;;3.33;1.67;;;20.00;61.50;;;;;;4964479;28;20459;-71
2021/05/08 11:49:55;;;;;;;1.80;1.70;;;19.60;63.50;;;;;;4964037;28;20506;-71
2021/05/08 11:52:32;;;;;;;2.23;2.03;;;19.10;64.20;;;;;;4964340;28;20459;-70
2021/05/08 11:54:58;;;;;;;2.00;1.43;;;18.60;66.00;;;;;;4964600;28;20513;-70
2021/05/08 11:57:24;;;;;;;1.83;1.50;;;18.30;65.90;;;;;;4964944;28;20586;-70
2021/05/08 11:59:52;;;;;;;2.73;1.90;;;18.30;66.70;;;;;;4963800;28;20695;-70
2021/05/08 12:02:20;;;;;;;1.70;1.60;;;18.50;65.70;;;;;;4964479;28;20463;-70
2021/05/08 12:04:48;;;;;;;1.60;1.50;;;18.70;69.10;;;;;;4964811;28;20463;-71
2021/05/08 12:07:17;;;;;;;1.57;1.47;;;19.00;64.50;;;;;;4963974;28;20463;-70
2021/05/08 12:09:43;;;;;;;1.90;1.60;;;19.50;70.40;;;;;;4963302;28;20483;-70
2021/05/08 12:12:10;;;;;;;1.53;1.43;;;19.70;65.00;;;;;;4963369;28;20525;-71
2021/05/08 12:14:43;;;;;;;1.70;1.60;;;20.00;65.70;;;;;;4963130;28;20493;-71
2021/05/08 12:17:10;;;;;;;1.97;1.47;;;20.50;66.00;;;;;;4963982;28;20474;-71
2021/05/08 12:19:37;;;;;;;5.90;1.60;;;20.50;61.00;;;;;;4961041;28;20770;-70
2021/05/08 12:22:04;;;;;;;2.03;1.60;;;20.40;61.30;;;;;;4964453;28;20466;-70
2021/05/08 12:24:31;;;;;;;2.53;1.40;;;20.60;63.30;;;;;;4963959;28;20515;-71
2021/05/08 12:26:57;;;;;;;2.03;1.43;;;20.60;62.80;;;;;;4964946;28;20462;-70
2021/05/08 12:29:24;;;;;;;1.73;1.63;;;20.50;65.60;;;;;;4963358;28;20494;-69
2021/05/08 12:31:51;;;;;;;1.90;1.70;;;20.20;62.30;;;;;;4964226;28;21287;-70
2021/05/08 12:34:21;;;;;;;1.67;1.57;;;19.70;62.00;;;;;;4964161;28;20933;-69
2021/05/08 12:37:01;;;;;;;3.60;1.80;;;19.30;63.80;;;;;;4963944;28;20474;-71
2021/05/08 12:39:28;;;;;;;1.97;1.70;;;18.70;63.40;;;;;;4963443;28;20490;-71
2021/05/08 12:41:55;;;;;;;2.57;1.60;;;18.60;65.60;;;;;;4965008;28;20463;-72
2021/05/08 12:44:30;;;;;;;1.73;1.63;;;18.30;66.80;;;;;;4963133;28;20473;-71
2021/05/08 12:47:03;;;;;;;1.50;1.40;;;18.30;68.50;;;;;;4964220;28;21429;-69
2021/05/08 12:49:31;;;;;;;1.30;1.20;;;18.30;67.70;;;;;;4963261;28;20511;-69
2021/05/08 12:51:58;;;;;;;3.37;1.63;;;18.30;67.80;;;;;;4964262;28;20463;-69
2021/05/08 12:54:26;;;;;;;1.50;1.30;;;18.00;65.20;;;;;;4963859;28;20483;-70
2021/05/08 12:56:54;;;;;;;2.17;1.57;;;17.80;65.20;;;;;;4964737;28;20526;-70
2021/05/08 12:59:25;;;;;;;2.27;1.50;;;17.70;66.30;;;;;;4965303;28;20490;-70
2021/05/08 13:01:54;;;;;;;1.33;1.23;;;17.80;67.30;;;;;;4965195;28;20469;-69